Owensboro Daviess County Airport
KOWB : now visible

Airfield :











YOU CAN JOIN US ON...

 
LOGIN :

Register | Disclaimer

   EN    FR    IT 

 









Legend :    VFR   Marginal VFR   IFR   Intensive IFR   Very Intensive IFR
Visi :
Ceiling :
>= 8 km
>= 3000ft
5 to 8 km
1000 to 3000 ft
1500m to 5 km
500 to 1000 ft
800 to 1500m
200 to 500 ft
< 800m
< 200 ft
Symbols :   Thunderstorms  Fog  Heavy snow  Heavy precipitations  Wind > 20 kt






- Airport Elevation : 407 ft
- IATA code : OWB


KOWB - Owensboro Daviess County

CURRENT METAR :
  • 061556Z 16003KT 10SM OVC060 09/07 A3014 RMK AO2 RAB41E55 SLP209 P0000 T00890067

EXPIRED METARs :
  • 061456Z 15005KT 10SM OVC080 08/07 A3013 RMK AO2 RAE36 SLP204 P0000 60007 T00830067 53016
  • 061356Z 12004KT 10SM -RA OVC060 08/07 A3011 RMK AO2 SLP196 P0003 T00780067

TAF KOWB
Valid from the 06 at 12:00 until the 07 at 12:00 UTC


061125Z 0612/0712 VRB03KT 6SM -SHRA OVC070
FM061700 VRB03KT P6SM VCSH OVC040
FM062100 36007KT P6SM BKN025
FM070200 02009KT P6SM BKN040
FM071000 04005KT P6SM SCT150



MET'MAP, your aeronautical weather chart ! - Copyright ORBIFLY December 2007 - Disclaimer

ORBIFLY MET'MAP TEAM :

Programming & Development : Alexandra Zaïnal
Concept & original design : Baudouin d'Aumeries
Assistance for programming : Marc-Olivier Méhu
Technical & hardware support : Manuel Goepfert

Contact : metmap@orbifly.com




SOURCES & CREDITS :

   NOAA       Earth
Advisory